createdAt,value
2019-02-16T00:04:17.289Z,64.12
2019-02-16T00:09:22.316Z,64.34
2019-02-16T00:14:27.392Z,64.36
2019-02-16T00:19:32.532Z,64.39
2019-02-16T00:24:37.551Z,64.37
2019-02-16T00:29:43.760Z,64.38
2019-02-16T00:34:48.846Z,64.37
2019-02-16T00:39:54.116Z,64.27
2019-02-16T00:44:59.471Z,63.94
2019-02-16T00:50:04.590Z,63.50
2019-02-16T00:55:09.738Z,63.42
2019-02-16T01:00:19.193Z,63.29
2019-02-16T01:05:24.266Z,63.14
2019-02-16T01:10:29.448Z,62.97
2019-02-16T01:15:34.527Z,62.95
2019-02-16T01:20:39.655Z,63.06
2019-02-16T01:25:44.751Z,62.88
2019-02-16T01:30:50.222Z,62.95
2019-02-16T01:35:55.883Z,62.95
2019-02-16T01:41:01.123Z,62.92
2019-02-16T01:46:06.248Z,63.06
2019-02-16T01:51:11.329Z,63.14
2019-02-16T01:56:16.341Z,63.14
2019-02-16T02:01:21.883Z,63.17
2019-02-16T02:06:26.967Z,63.38
2019-02-16T02:11:32.092Z,63.39
2019-02-16T02:16:37.268Z,63.50
2019-02-16T02:21:42.325Z,63.54
2019-02-16T02:26:47.295Z,63.57
2019-02-16T02:31:52.384Z,63.85
2019-02-16T02:36:57.581Z,63.54
2019-02-16T02:42:02.690Z,63.70
2019-02-16T02:47:07.846Z,63.79
2019-02-16T02:52:12.906Z,63.60
2019-02-16T02:57:18.014Z,63.74
2019-02-16T03:02:23.056Z,63.93
2019-02-16T03:07:28.165Z,64.10
2019-02-16T03:12:33.677Z,63.96
2019-02-16T03:17:38.833Z,64.04
2019-02-16T03:23:30.251Z,64.04
2019-02-16T03:28:52.011Z,63.89
2019-02-16T03:34:05.285Z,63.69
2019-02-16T03:39:19.743Z,63.78
2019-02-16T03:44:25.047Z,63.76
2019-02-16T03:49:30.141Z,63.98
2019-02-16T03:54:35.096Z,64.03
2019-02-16T03:59:40.073Z,64.15
2019-02-16T04:04:46.228Z,64.27
2019-02-16T04:09:51.606Z,64.59
2019-02-16T04:14:57.175Z,64.80
2019-02-16T04:20:05.958Z,64.79
2019-02-16T04:25:11.622Z,64.94
2019-02-16T04:30:19.404Z,65.30
2019-02-16T04:35:28.152Z,65.33
2019-02-16T04:40:33.710Z,65.53
2019-02-16T04:45:39.252Z,65.82
2019-02-16T04:50:47.442Z,65.95
2019-02-16T04:55:55.939Z,66.10
2019-02-16T05:01:01.113Z,66.17
2019-02-16T05:06:07.125Z,66.39
2019-02-16T05:11:12.189Z,66.43
2019-02-16T05:16:20.263Z,67.08
2019-02-16T05:21:28.856Z,66.95
2019-02-16T05:26:37.468Z,67.11
2019-02-16T05:31:52.469Z,67.47
2019-02-16T05:37:01.208Z,67.88
2019-02-16T05:42:11.745Z,68.06
2019-02-16T05:47:19.063Z,68.29
2019-02-16T05:52:25.137Z,68.40
2019-02-16T05:57:34.705Z,68.46
2019-02-16T06:02:40.275Z,68.55
2019-02-16T06:07:45.557Z,68.85
2019-02-16T06:12:53.812Z,68.88
2019-02-16T06:17:59.826Z,69.25
2019-02-16T06:23:05.034Z,69.36
2019-02-16T06:28:10.689Z,69.46
2019-02-16T06:33:16.095Z,69.39
2019-02-16T06:38:21.302Z,69.24
2019-02-16T06:43:26.932Z,69.33
2019-02-16T06:48:33.955Z,69.28
2019-02-16T06:53:42.276Z,69.06
2019-02-16T06:58:47.861Z,68.82
2019-02-16T07:03:53.452Z,68.73
2019-02-16T07:09:07.984Z,68.29
2019-02-16T07:14:13.184Z,68.10
2019-02-16T07:19:24.127Z,68.24
2019-02-16T07:24:29.525Z,67.96
2019-02-16T07:29:34.637Z,67.55
2019-02-16T07:34:39.725Z,66.93
2019-02-16T07:39:44.826Z,66.76
2019-02-16T07:45:07.956Z,65.99
2019-02-16T07:50:27.532Z,65.45
2019-02-16T07:55:54.464Z,64.71
2019-02-16T08:01:17.289Z,64.92
2019-02-16T08:06:34.230Z,64.30
2019-02-16T08:11:48.588Z,63.83
2019-02-16T08:17:00.042Z,62.24
2019-02-16T08:22:22.763Z,60.87
2019-02-16T08:27:39.057Z,59.08
2019-02-16T08:33:05.995Z,57.77
2019-02-16T08:38:36.295Z,56.51
2019-02-16T08:43:51.051Z,56.42
2019-02-16T08:49:19.433Z,56.30
2019-02-16T08:54:30.775Z,56.08
2019-02-16T09:00:04.263Z,55.51
2019-02-16T09:05:16.202Z,54.58
2019-02-16T09:10:49.101Z,53.29
2019-02-16T09:16:13.176Z,52.93
2019-02-16T09:21:28.641Z,52.31
2019-02-16T09:26:51.711Z,51.65
2019-02-16T09:32:18.994Z,50.95
2019-02-16T09:37:41.035Z,50.45
2019-02-16T09:43:04.293Z,50.02
2019-02-16T09:48:18.115Z,49.43
2019-02-16T09:53:41.620Z,48.59
2019-02-16T09:59:05.993Z,47.87
2019-02-16T10:04:29.087Z,44.72
2019-02-16T10:09:52.392Z,33.43
2019-02-16T10:15:15.136Z,28.17
2019-02-16T10:20:29.073Z,24.23
2019-02-16T10:25:54.995Z,21.72
2019-02-16T10:31:21.680Z,20.82
2019-02-16T10:36:44.280Z,21.05
2019-02-16T10:42:06.067Z,20.90
2019-02-16T10:47:30.167Z,22.10
2019-02-16T10:53:03.419Z,22.49
2019-02-16T10:58:29.385Z,23.54
2019-02-16T11:03:52.389Z,21.84
2019-02-16T11:09:07.948Z,23.14
2019-02-16T11:14:21.753Z,23.40
2019-02-16T11:19:42.546Z,24.36
2019-02-16T11:25:05.511Z,22.91
2019-02-16T11:30:29.601Z,22.92
2019-02-16T11:36:09.010Z,24.24
2019-02-16T11:41:22.594Z,25.02
2019-02-16T11:46:45.530Z,24.48
2019-02-16T11:51:59.718Z,24.03
2019-02-16T11:57:42.229Z,23.92
2019-02-16T12:03:19.198Z,23.27
2019-02-16T12:08:44.148Z,22.78
2019-02-16T12:14:17.908Z,22.14
2019-02-16T12:19:30.963Z,21.99
2019-02-16T12:25:05.357Z,22.77
2019-02-16T12:30:28.994Z,22.63
2019-02-16T12:35:51.231Z,22.19
2019-02-16T12:41:21.832Z,20.15
2019-02-16T12:46:36.449Z,19.58
2019-02-16T12:51:57.858Z,17.07
2019-02-16T12:57:07.866Z,16.36
2019-02-16T13:02:30.624Z,16.03
2019-02-16T13:07:49.989Z,16.76
2019-02-16T13:13:08.558Z,16.13
2019-02-16T13:18:28.423Z,16.84
2019-02-16T13:23:46.598Z,16.33
2019-02-16T13:29:10.754Z,18.10
2019-02-16T13:34:33.921Z,17.92
2019-02-16T13:39:53.043Z,18.27
2019-02-16T13:45:07.607Z,18.26
2019-02-16T13:50:30.696Z,18.07
2019-02-16T13:56:00.678Z,18.26
2019-02-16T14:01:20.904Z,18.98
2019-02-16T14:06:44.665Z,18.27
2019-02-16T14:12:03.771Z,18.65
2019-02-16T14:17:27.437Z,19.17
2019-02-16T14:22:32.483Z,18.68
2019-02-16T14:27:37.547Z,18.51
2019-02-16T14:32:42.697Z,19.46
2019-02-16T14:38:02.425Z,20.90
2019-02-16T14:43:07.442Z,22.17
2019-02-16T14:48:12.515Z,23.66
2019-02-16T14:53:17.886Z,24.20
2019-02-16T14:58:22.887Z,25.09
2019-02-16T15:03:28.009Z,26.37
2019-02-16T15:08:33.163Z,27.49
2019-02-16T15:13:40.354Z,28.03
2019-02-16T15:18:45.652Z,27.87
2019-02-16T15:23:51.457Z,28.13
2019-02-16T15:28:56.870Z,27.85
2019-02-16T15:34:02.100Z,28.63
2019-02-16T15:39:13.191Z,29.61
2019-02-16T15:44:18.401Z,30.50
2019-02-16T15:49:24.156Z,31.19
2019-02-16T15:54:29.456Z,31.77
2019-02-16T15:59:35.415Z,32.30
2019-02-16T16:04:40.584Z,32.65
2019-02-16T16:10:20.530Z,33.29
2019-02-16T16:15:47.550Z,33.93
2019-02-16T16:21:11.891Z,34.56
2019-02-16T16:26:36.090Z,35.16
2019-02-16T16:32:01.219Z,36.36
2019-02-16T16:37:23.363Z,37.30
2019-02-16T16:42:44.347Z,38.19
2019-02-16T16:48:08.961Z,39.58
2019-02-16T16:53:38.676Z,40.11
2019-02-16T16:59:05.689Z,40.55
2019-02-16T17:04:25.027Z,41.17
2019-02-16T17:10:01.281Z,42.10
2019-02-16T17:15:22.962Z,43.04
2019-02-16T17:20:58.021Z,43.39
2019-02-16T17:26:20.830Z,44.25
2019-02-16T17:31:45.142Z,44.78
2019-02-16T17:37:02.380Z,45.34
2019-02-16T17:42:19.704Z,45.98
2019-02-16T17:47:43.975Z,46.37
2019-02-16T17:53:17.563Z,46.80
2019-02-16T17:58:34.347Z,47.36
2019-02-16T18:03:48.327Z,47.51
2019-02-16T18:09:11.898Z,47.90
2019-02-16T18:14:42.371Z,48.54
2019-02-16T18:20:06.585Z,48.88
2019-02-16T18:25:35.995Z,49.56
2019-02-16T18:31:00.147Z,49.73
2019-02-16T18:36:23.057Z,50.36
2019-02-16T18:41:56.133Z,50.75
2019-02-16T18:47:19.795Z,51.32
2019-02-16T18:52:43.315Z,51.36
2019-02-16T18:58:08.334Z,50.94
2019-02-16T19:03:27.664Z,50.36
2019-02-16T19:08:57.859Z,50.21
2019-02-16T19:14:24.932Z,49.40
2019-02-16T19:19:51.981Z,47.24
2019-02-16T19:25:16.116Z,46.06
2019-02-16T19:30:40.511Z,45.54
2019-02-16T19:35:53.076Z,45.33
2019-02-16T19:41:17.152Z,44.89
2019-02-16T19:46:41.154Z,44.59
2019-02-16T19:52:23.564Z,44.52
2019-02-16T19:57:40.722Z,45.05
2019-02-16T20:02:53.644Z,44.83
2019-02-16T20:08:31.264Z,44.53
2019-02-16T20:13:52.151Z,44.41
2019-02-16T20:19:34.663Z,44.54
2019-02-16T20:24:54.213Z,44.65
2019-02-16T20:30:27.865Z,45.12
2019-02-16T20:35:45.423Z,45.45
2019-02-16T20:41:08.964Z,45.95
2019-02-16T20:46:33.211Z,45.72
2019-02-16T20:51:51.606Z,46.74
2019-02-16T20:57:03.975Z,47.17
2019-02-16T21:02:28.458Z,47.01
2019-02-16T21:07:48.256Z,47.07
2019-02-16T21:13:13.396Z,47.28
2019-02-16T21:18:37.835Z,48.02
2019-02-16T21:24:05.146Z,48.06
2019-02-16T21:29:22.552Z,48.23
2019-02-16T21:34:46.801Z,48.92
2019-02-16T21:40:20.000Z,49.20
2019-02-16T21:45:47.658Z,49.42
2019-02-16T21:51:13.015Z,49.82
2019-02-16T21:56:37.903Z,50.15
2019-02-16T22:01:52.740Z,50.19
2019-02-16T22:07:22.702Z,50.86
2019-02-16T22:12:59.086Z,51.06
2019-02-16T22:18:04.348Z,51.35
2019-02-16T22:23:10.144Z,52.01
2019-02-16T22:28:20.347Z,52.39
2019-02-16T22:33:22.108Z,52.80
2019-02-16T22:38:27.260Z,52.50
2019-02-16T22:43:32.775Z,52.36
2019-02-16T22:48:38.140Z,52.63
2019-02-16T22:53:43.648Z,53.02
2019-02-16T22:58:48.748Z,53.16
2019-02-16T23:03:53.944Z,53.11
2019-02-16T23:08:59.575Z,53.83
2019-02-16T23:14:04.847Z,54.19
2019-02-16T23:19:10.020Z,54.71
2019-02-16T23:24:15.140Z,54.81
2019-02-16T23:29:22.444Z,55.29
2019-02-16T23:34:27.720Z,55.51
2019-02-16T23:39:33.047Z,55.20
2019-02-16T23:44:38.102Z,55.86
2019-02-16T23:49:43.690Z,56.06
2019-02-16T23:54:49.256Z,56.12
2019-02-16T23:59:54.337Z,56.94
